createdAt,value
2016-03-20T00:00:33.523Z,58.13
2016-03-20T00:01:33.526Z,58.51
2016-03-20T00:02:33.514Z,58.32
2016-03-20T00:03:33.517Z,58.13
2016-03-20T00:04:33.503Z,58.41
2016-03-20T00:05:33.490Z,58.51
2016-03-20T00:06:33.492Z,58.51
2016-03-20T00:07:33.480Z,58.51
2016-03-20T00:08:33.482Z,58.13
2016-03-20T00:09:33.469Z,58.51
2016-03-20T00:10:33.472Z,58.22
2016-03-20T00:11:33.444Z,58.32
2016-03-20T00:12:33.446Z,58.22
2016-03-20T00:13:33.433Z,57.94
2016-03-20T00:14:33.435Z,57.84
2016-03-20T00:15:33.424Z,57.94
2016-03-20T00:16:33.426Z,58.22
2016-03-20T00:17:33.413Z,58.22
2016-03-20T00:18:33.399Z,58.32
2016-03-20T00:19:33.403Z,58.13
2016-03-20T00:20:33.405Z,57.94
2016-03-20T00:21:33.393Z,57.84
2016-03-20T00:22:33.395Z,57.94
2016-03-20T00:23:33.366Z,57.94
2016-03-20T00:24:33.368Z,58.03
2016-03-20T00:25:33.356Z,57.84
2016-03-20T00:26:33.343Z,58.13
2016-03-20T00:27:33.346Z,58.13
2016-03-20T00:28:34.504Z,58.22
2016-03-20T00:29:33.429Z,58.03
2016-03-20T00:30:33.323Z,57.94
2016-03-20T00:31:33.481Z,57.94
2016-03-20T00:32:33.844Z,57.94
2016-03-20T00:33:34.097Z,58.22
2016-03-20T00:34:33.286Z,58.03
2016-03-20T00:35:33.289Z,57.94
2016-03-20T00:36:33.276Z,57.94
2016-03-20T00:37:33.404Z,57.84
2016-03-20T00:38:33.891Z,57.75
2016-03-20T00:39:33.269Z,57.56
2016-03-20T00:40:33.256Z,57.65
2016-03-20T00:41:33.603Z,57.56
2016-03-20T00:43:34.780Z,57.65
2016-03-20T00:44:33.704Z,57.75
2016-03-20T00:45:34.254Z,57.94
2016-03-20T00:46:33.225Z,57.94
2016-03-20T00:47:33.212Z,57.94
2016-03-20T00:48:33.247Z,57.94
2016-03-20T00:49:33.202Z,57.75
2016-03-20T00:50:33.189Z,57.84
2016-03-20T00:51:33.176Z,57.65
2016-03-20T00:52:33.179Z,57.75
2016-03-20T00:53:33.150Z,57.56
2016-03-20T00:54:33.153Z,57.75
2016-03-20T00:55:33.156Z,57.46
2016-03-20T00:56:33.159Z,57.46
2016-03-20T00:57:33.145Z,57.65
2016-03-20T00:58:33.148Z,57.75
2016-03-20T00:59:33.135Z,57.65
2016-03-20T01:00:33.123Z,57.75
2016-03-20T01:01:33.125Z,57.65
2016-03-20T01:02:33.112Z,57.75
2016-03-20T01:03:33.115Z,57.94
2016-03-20T01:04:33.086Z,57.56
2016-03-20T01:05:33.089Z,57.94
2016-03-20T01:06:33.076Z,57.75
2016-03-20T01:07:33.079Z,57.84
2016-03-20T01:08:33.081Z,57.94
2016-03-20T01:09:33.052Z,58.03
2016-03-20T01:10:33.056Z,57.94
2016-03-20T01:11:33.027Z,58.22
2016-03-20T01:12:33.045Z,58.03
2016-03-20T01:13:33.032Z,58.03
2016-03-20T01:14:33.035Z,58.03
2016-03-20T01:15:33.022Z,58.03
2016-03-20T01:16:33.008Z,58.03
2016-03-20T01:17:32.996Z,58.13
2016-03-20T01:18:32.999Z,58.32
2016-03-20T01:19:32.986Z,58.03
2016-03-20T01:20:32.988Z,57.75
2016-03-20T01:21:32.976Z,57.94
2016-03-20T01:22:32.962Z,57.65
2016-03-20T01:23:32.965Z,57.46
2016-03-20T01:24:32.952Z,57.46
2016-03-20T01:25:32.955Z,57.37
2016-03-20T01:26:32.943Z,57.75
2016-03-20T01:27:32.945Z,57.75
2016-03-20T01:28:32.932Z,57.37
2016-03-20T01:29:32.919Z,57.37
2016-03-20T01:30:32.938Z,57.46
2016-03-20T01:31:32.909Z,57.75
2016-03-20T01:32:32.912Z,57.37
2016-03-20T01:33:32.884Z,57.37
2016-03-20T01:34:32.886Z,57.75
2016-03-20T01:35:32.872Z,57.46
2016-03-20T01:36:32.891Z,57.75
2016-03-20T01:37:32.862Z,57.75
2016-03-20T01:38:32.865Z,57.75
2016-03-20T01:39:32.867Z,57.18
2016-03-20T01:40:32.856Z,57.75
2016-03-20T01:41:32.842Z,57.75
2016-03-20T01:42:32.829Z,57.37
2016-03-20T01:43:32.831Z,57.56
2016-03-20T01:44:32.834Z,57.75
2016-03-20T01:45:32.805Z,57.56
2016-03-20T01:46:32.793Z,57.56
2016-03-20T01:47:32.077Z,57.75
2016-03-20T01:48:32.907Z,57.75
2016-03-20T01:49:32.801Z,57.84
2016-03-20T01:50:32.897Z,57.46
2016-03-20T01:51:33.260Z,57.75
2016-03-20T01:53:32.796Z,57.75
2016-03-20T01:54:32.736Z,57.75
2016-03-20T01:55:32.755Z,57.75
2016-03-20T01:56:32.866Z,57.46
2016-03-20T01:57:33.322Z,57.65
2016-03-20T01:58:32.732Z,57.65
2016-03-20T01:59:32.718Z,57.75
2016-03-20T02:00:32.971Z,58.03
2016-03-20T02:01:33.551Z,58.03
2016-03-20T02:02:34.257Z,57.94
2016-03-20T02:03:33.089Z,58.13
2016-03-20T02:04:32.685Z,58.22
2016-03-20T02:05:32.688Z,58.22
2016-03-20T02:06:32.518Z,58.32
2016-03-20T02:07:32.661Z,58.13
2016-03-20T02:08:32.664Z,58.03
2016-03-20T02:09:32.651Z,58.13
2016-03-20T02:10:32.654Z,58.22
2016-03-20T02:11:32.642Z,58.51
2016-03-20T02:12:32.629Z,57.75
2016-03-20T02:13:32.600Z,58.41
2016-03-20T02:14:32.619Z,58.51
2016-03-20T02:15:32.636Z,58.22
2016-03-20T02:16:32.592Z,58.22
2016-03-20T02:17:32.595Z,58.13
2016-03-20T02:18:32.597Z,58.2
2016-03-20T02:19:32.569Z,58.22
2016-03-20T02:20:32.587Z,58.32
2016-03-20T02:21:32.574Z,58.22
2016-03-20T02:22:32.561Z,58.51
2016-03-20T02:23:32.549Z,58.51
2016-03-20T02:24:32.552Z,58.22
2016-03-20T02:25:32.554Z,58.8
2016-03-20T02:26:32.526Z,58.32
2016-03-20T02:27:32.529Z,58.7
2016-03-20T02:28:32.515Z,58.89
2016-03-20T02:29:32.502Z,58.8
2016-03-20T02:30:32.521Z,58.89
2016-03-20T02:31:32.492Z,58.7
2016-03-20T02:32:32.495Z,58.61
2016-03-20T02:33:32.482Z,58.8
2016-03-20T02:34:32.468Z,58.61
2016-03-20T02:35:32.300Z,58.61
2016-03-20T02:36:32.474Z,58.89
2016-03-20T02:37:32.477Z,59.08
2016-03-20T02:38:32.448Z,59.36
2016-03-20T02:39:32.436Z,59.36
2016-03-20T02:40:32.454Z,59.17
2016-03-20T02:41:32.425Z,59.36
2016-03-20T02:42:32.444Z,59.46
2016-03-20T02:43:32.414Z,59.46
2016-03-20T02:44:32.402Z,59.36
2016-03-20T02:45:32.420Z,59.36
2016-03-20T02:46:32.391Z,58.98
2016-03-20T02:47:32.379Z,59.36
2016-03-20T02:48:32.381Z,59.55
2016-03-20T02:49:32.369Z,59.36
2016-03-20T02:50:32.355Z,59.84
2016-03-20T02:51:32.358Z,59.62
2016-03-20T02:52:32.346Z,59.84
2016-03-20T02:53:32.348Z,60.6
2016-03-20T02:54:32.351Z,60.69
2016-03-20T02:55:32.338Z,60.5
2016-03-20T02:56:32.341Z,60.38
2016-03-20T02:57:32.312Z,61.04
2016-03-20T02:58:32.315Z,61.04
2016-03-20T02:59:32.301Z,60.98
2016-03-20T03:00:32.305Z,61.14
2016-03-20T03:01:32.291Z,61.26
2016-03-20T03:02:32.293Z,61.26
2016-03-20T03:03:32.266Z,60.98
2016-03-20T03:04:32.268Z,61.23
2016-03-20T03:05:32.256Z,61.42
2016-03-20T03:06:33.561Z,61.42
2016-03-20T03:07:32.455Z,61.61
2016-03-20T03:08:32.239Z,61.71
2016-03-20T03:09:32.586Z,62.12
2016-03-20T03:10:34.307Z,61.99
2016-03-20T03:11:33.075Z,61.99
2016-03-20T03:12:33.594Z,62.56
2016-03-20T03:13:33.486Z,61.99
2016-03-20T03:14:32.411Z,62.18
2016-03-20T03:15:32.180Z,62.37
2016-03-20T03:16:32.291Z,62.37
2016-03-20T03:17:32.169Z,62.56
2016-03-20T03:18:32.172Z,62.18
2016-03-20T03:19:32.409Z,62.94
2016-03-20T03:20:33.021Z,62.85
2016-03-20T03:21:32.587Z,63.32
2016-03-20T03:22:32.167Z,63.04
2016-03-20T03:23:32.498Z,62.94
2016-03-20T03:24:32.704Z,63.42
2016-03-20T03:25:32.128Z,63.42
2016-03-20T03:26:32.132Z,64.17
2016-03-20T03:27:32.118Z,63.6
2016-03-20T03:28:32.106Z,64.17
2016-03-20T03:29:32.092Z,64.65
2016-03-20T03:30:32.079Z,64.75
2016-03-20T03:31:32.081Z,64.37
2016-03-20T03:32:32.070Z,65.31
2016-03-20T03:33:32.056Z,65.22
2016-03-20T03:34:32.043Z,65.41
2016-03-20T03:35:32.061Z,65.03
2016-03-20T03:36:32.033Z,65.5
2016-03-20T03:37:32.036Z,65.79
2016-03-20T03:38:32.039Z,66.46
2016-03-20T03:39:32.025Z,66.17
2016-03-20T03:40:32.012Z,65.98
2016-03-20T03:41:32.016Z,66.08
2016-03-20T03:42:32.002Z,66.27
2016-03-20T03:43:31.989Z,66.93
2016-03-20T03:44:31.976Z,66.36
2016-03-20T03:45:31.979Z,66.83
2016-03-20T03:46:31.966Z,66.93
2016-03-20T03:47:31.969Z,67.12
2016-03-20T03:48:31.940Z,67.21
2016-03-20T03:49:31.943Z,66.74
2016-03-20T03:50:31.946Z,67.21
2016-03-20T03:51:31.932Z,67.5
2016-03-20T03:52:31.936Z,67.5
2016-03-20T03:53:31.923Z,67.79
2016-03-20T03:54:31.910Z,68.07
2016-03-20T03:55:31.896Z,68.54
2016-03-20T03:56:31.899Z,68.35
2016-03-20T03:57:31.902Z,68.44
2016-03-20T03:58:31.873Z,68.54
2016-03-20T03:59:31.876Z,68.54
2016-03-20T04:00:31.862Z,68.73
2016-03-20T04:01:31.882Z,68.92
2016-03-20T04:02:31.858Z,68.83
2016-03-20T04:03:31.845Z,69.11
2016-03-20T04:04:31.832Z,69.21
2016-03-20T04:05:31.850Z,69.02
2016-03-20T04:06:31.666Z,69.4
2016-03-20T04:07:31.824Z,69.49
2016-03-20T04:08:31.811Z,69.74
2016-03-20T04:09:31.798Z,69.74
2016-03-20T04:10:31.801Z,70.15
2016-03-20T04:11:31.773Z,70.12
2016-03-20T04:12:31.775Z,70.44
2016-03-20T04:13:31.762Z,70.69
2016-03-20T04:14:31.766Z,70.5
2016-03-20T04:15:31.768Z,70.69
2016-03-20T04:16:31.785Z,70.82
2016-03-20T04:17:31.742Z,71.01
2016-03-20T04:18:31.729Z,71.01
2016-03-20T04:19:31.731Z,70.88
2016-03-20T04:20:31.719Z,71.3
2016-03-20T04:21:31.706Z,71.07
2016-03-20T04:22:31.708Z,71.11
2016-03-20T04:23:31.712Z,71.73
2016-03-20T04:24:31.682Z,71.45
2016-03-20T04:25:32.934Z,71.3
2016-03-20T04:26:31.923Z,71.39
2016-03-20T04:27:31.665Z,71.48
2016-03-20T04:28:31.842Z,71.45
2016-03-20T04:29:32.645Z,71.96
2016-03-20T04:30:31.604Z,71.45
2016-03-20T04:31:31.609Z,71.92
2016-03-20T04:32:31.574Z,72.59
2016-03-20T04:33:31.556Z,72.02
2016-03-20T04:34:31.712Z,72.4
2016-03-20T04:35:32.194Z,72.3
2016-03-20T04:36:31.504Z,72.3
2016-03-20T04:37:31.505Z,72.25
2016-03-20T04:38:31.835Z,72.02
2016-03-20T04:39:31.492Z,72.02
2016-03-20T04:40:33.149Z,72.4
2016-03-20T04:41:31.994Z,72.3
2016-03-20T04:42:32.527Z,72.34
2016-03-20T04:43:31.451Z,72.25
2016-03-20T04:44:31.437Z,72.44
2016-03-20T04:45:31.548Z,72.63
2016-03-20T04:46:31.456Z,72.53
2016-03-20T04:47:31.428Z,72.72
2016-03-20T04:48:31.415Z,73
2016-03-20T04:49:31.401Z,73.19
2016-03-20T04:50:31.420Z,72.44
2016-03-20T04:51:31.392Z,72.91
2016-03-20T04:52:31.394Z,73.1
2016-03-20T04:53:31.381Z,72.68
2016-03-20T04:54:31.369Z,72.78
2016-03-20T04:55:31.371Z,72.88
2016-03-20T04:56:31.359Z,72.91
2016-03-20T04:57:31.345Z,72.88
2016-03-20T04:58:31.332Z,73.19
2016-03-20T04:59:31.320Z,72.97
2016-03-20T05:00:31.322Z,72.88
2016-03-20T05:01:31.308Z,72.97
2016-03-20T05:02:31.312Z,73.29
2016-03-20T05:03:31.299Z,72.91
2016-03-20T05:04:31.286Z,73
2016-03-20T05:05:31.305Z,72.63
2016-03-20T05:06:31.276Z,72.63
2016-03-20T05:07:31.262Z,73.19
2016-03-20T05:08:31.266Z,73
2016-03-20T05:09:31.252Z,72.81
2016-03-20T05:10:31.254Z,72.97
2016-03-20T05:11:31.227Z,72.97
2016-03-20T05:12:31.229Z,72.97
2016-03-20T05:13:31.248Z,72.91
2016-03-20T05:14:31.219Z,72.97
2016-03-20T05:15:31.221Z,73
2016-03-20T05:16:31.209Z,72.81
2016-03-20T05:17:31.196Z,72.34
2016-03-20T05:18:31.198Z,72.15
2016-03-20T05:19:31.186Z,72.44
2016-03-20T05:20:31.189Z,72.15
2016-03-20T05:21:31.192Z,72.44
2016-03-20T05:22:31.162Z,72.25
2016-03-20T05:23:31.150Z,72.44
2016-03-20T05:24:31.137Z,72.44
2016-03-20T05:25:31.139Z,72.63
2016-03-20T05:26:31.142Z,72.25
2016-03-20T05:27:31.113Z,72.11
2016-03-20T05:28:31.100Z,72.11
2016-03-20T05:29:31.118Z,72.3
2016-03-20T05:30:31.106Z,71.86
2016-03-20T05:31:31.108Z,71.96
2016-03-20T05:32:31.080Z,72.15
2016-03-20T05:33:31.083Z,72.34
2016-03-20T05:34:31.054Z,72.44
2016-03-20T05:35:31.057Z,72.44
2016-03-20T05:36:31.060Z,72.15
2016-03-20T05:37:31.046Z,72.15
2016-03-20T05:38:31.049Z,72.15
2016-03-20T05:39:31.036Z,72.06
2016-03-20T05:40:31.023Z,71.96
2016-03-20T05:41:31.027Z,72.06
2016-03-20T05:42:31.013Z,71.96
2016-03-20T05:43:31.015Z,71.48
2016-03-20T05:44:32.207Z,71.67
2016-03-20T05:45:31.084Z,71.67
2016-03-20T05:46:30.992Z,71.58
2016-03-20T05:47:30.979Z,71.77
2016-03-20T05:48:31.764Z,71.3
2016-03-20T05:49:31.251Z,71.3
2016-03-20T05:50:31.707Z,70.92
2016-03-20T05:51:31.600Z,71.58
2016-03-20T05:52:31.087Z,71.01
2016-03-20T05:53:30.949Z,71.58
2016-03-20T05:54:32.467Z,71.11
2016-03-20T05:55:31.078Z,71.3
2016-03-20T05:56:31.066Z,71.48
2016-03-20T05:57:30.897Z,71.58
2016-03-20T05:58:31.244Z,71.77
2016-03-20T05:59:30.903Z,71.86
2016-03-20T06:00:32.030Z,71.96
2016-03-20T06:01:30.877Z,71.77
2016-03-20T06:02:30.864Z,71.86
2016-03-20T06:03:30.866Z,71.48
2016-03-20T06:04:30.869Z,71.86
2016-03-20T06:05:30.840Z,72.06
2016-03-20T06:06:30.844Z,71.96
2016-03-20T06:07:30.830Z,71.58
2016-03-20T06:08:30.833Z,71.58
2016-03-20T06:09:30.821Z,71.77
2016-03-20T06:10:30.791Z,71.48
2016-03-20T06:11:30.810Z,71.3
2016-03-20T06:12:30.781Z,71.58
2016-03-20T06:13:30.784Z,71.11
2016-03-20T06:14:30.786Z,71.39
2016-03-20T06:15:30.774Z,71.2
2016-03-20T06:16:30.760Z,71.11
2016-03-20T06:17:30.763Z,71.48
2016-03-20T06:18:30.766Z,71.3
2016-03-20T06:19:30.753Z,71.39
2016-03-20T06:20:30.740Z,71.77
2016-03-20T06:21:30.743Z,71.01
2016-03-20T06:22:30.558Z,70.73
2016-03-20T06:23:30.717Z,70.92
2016-03-20T06:24:30.719Z,71.3
2016-03-20T06:25:30.706Z,70.82
2016-03-20T06:26:30.709Z,71.01
2016-03-20T06:27:30.681Z,71.01
2016-03-20T06:28:30.699Z,70.73
2016-03-20T06:29:30.670Z,71.11
2016-03-20T06:30:30.673Z,71.01
2016-03-20T06:31:30.661Z,71.01
2016-03-20T06:32:30.648Z,70.82
2016-03-20T06:33:30.650Z,70.82
2016-03-20T06:34:30.638Z,70.92
2016-03-20T06:35:30.625Z,70.54
2016-03-20T06:36:30.627Z,70.54
2016-03-20T06:37:30.613Z,70.82
2016-03-20T06:38:30.601Z,70.82
2016-03-20T06:39:30.604Z,70.73
2016-03-20T06:40:30.607Z,70.15
2016-03-20T06:41:30.593Z,70.35
2016-03-20T06:42:30.596Z,70.35
2016-03-20T06:43:30.568Z,69.81
2016-03-20T06:44:30.586Z,69.81
2016-03-20T06:45:30.557Z,69.62
2016-03-20T06:46:30.545Z,70
2016-03-20T06:47:30.548Z,70
2016-03-20T06:48:30.535Z,70.1
2016-03-20T06:49:30.537Z,69.81
2016-03-20T06:50:30.539Z,69.53
2016-03-20T06:51:30.527Z,69.34
2016-03-20T06:52:30.514Z,69.15
2016-03-20T06:53:30.517Z,69.24
2016-03-20T06:54:30.520Z,68.96
2016-03-20T06:55:30.506Z,68.48
2016-03-20T06:56:30.493Z,68.33
2016-03-20T06:57:30.481Z,68.52
2016-03-20T06:58:30.467Z,67.94
2016-03-20T06:59:30.486Z,67.76
2016-03-20T07:00:30.473Z,67.47
2016-03-20T07:01:30.475Z,67.76
2016-03-20T07:02:30.478Z,67
2016-03-20T07:03:31.294Z,67.57
2016-03-20T07:04:31.093Z,67
2016-03-20T07:05:30.439Z,67.09
2016-03-20T07:06:30.442Z,66.61
2016-03-20T07:08:30.416Z,66.71
2016-03-20T07:09:31.200Z,66.33
2016-03-20T07:10:31.124Z,65.95
2016-03-20T07:11:30.784Z,66.42
2016-03-20T07:12:30.396Z,66.33
2016-03-20T07:13:31.352Z,66.14
2016-03-20T07:14:31.432Z,66.42
2016-03-20T07:15:31.123Z,65.82
2016-03-20T07:16:30.376Z,65.82
2016-03-20T07:17:30.612Z,66.01
2016-03-20T07:18:30.365Z,66.11
2016-03-20T07:19:31.945Z,66.2
2016-03-20T07:20:30.355Z,66.11
2016-03-20T07:21:30.623Z,66.01
2016-03-20T07:22:30.798Z,66.3
2016-03-20T07:23:30.347Z,66.39
2016-03-20T07:24:30.334Z,66.3
2016-03-20T07:25:30.321Z,66.3
2016-03-20T07:26:30.323Z,66.3
2016-03-20T07:27:30.311Z,66.11
2016-03-20T07:28:30.298Z,66.2
2016-03-20T07:29:30.316Z,66.39
2016-03-20T07:30:30.288Z,66.11
2016-03-20T07:31:30.291Z,66.2
2016-03-20T07:32:30.277Z,66.3
2016-03-20T07:33:30.281Z,66.01
2016-03-20T07:34:30.267Z,66.01
2016-03-20T07:35:30.254Z,66.3
2016-03-20T07:36:30.258Z,66.01
2016-03-20T07:37:30.247Z,66.67
2016-03-20T07:38:30.358Z,66.58
2016-03-20T07:39:30.284Z,66.58
2016-03-20T07:40:30.224Z,66.11
2016-03-20T07:41:30.210Z,66.11
2016-03-20T07:42:30.214Z,66.2
2016-03-20T07:43:30.200Z,66.2
2016-03-20T07:44:30.203Z,66.39
2016-03-20T07:45:30.191Z,66.39
2016-03-20T07:46:30.193Z,66.3
2016-03-20T07:47:30.180Z,66.2
2016-03-20T07:48:30.183Z,66.2
2016-03-20T07:49:30.170Z,66.3
2016-03-20T07:50:30.157Z,66.39
2016-03-20T07:51:30.160Z,65.73
2016-03-20T07:52:30.162Z,65.73
2016-03-20T07:53:30.150Z,65.44
2016-03-20T07:54:30.137Z,65.63
2016-03-20T07:55:30.123Z,65.35
2016-03-20T07:56:30.143Z,65.63
2016-03-20T07:57:30.113Z,65.35
2016-03-20T07:58:30.116Z,64.97
2016-03-20T07:59:30.087Z,65.44
2016-03-20T08:00:30.106Z,64.87
2016-03-20T08:01:30.092Z,65.19
2016-03-20T08:02:30.081Z,65.38
2016-03-20T08:03:30.098Z,64.72
2016-03-20T08:04:30.069Z,64.72
2016-03-20T08:05:30.057Z,64.53
2016-03-20T08:06:30.044Z,64.62
2016-03-20T08:07:30.047Z,64.43
2016-03-20T08:08:30.049Z,64.05
2016-03-20T08:09:30.052Z,63.95
2016-03-20T08:10:30.039Z,63.95
2016-03-20T08:11:30.025Z,63.95
2016-03-20T08:12:30.028Z,63.2
2016-03-20T08:13:30.031Z,63.48
2016-03-20T08:14:30.019Z,63.39
2016-03-20T08:15:30.021Z,63.2
2016-03-20T08:16:29.993Z,63.2
2016-03-20T08:17:29.995Z,63.2
2016-03-20T08:18:29.982Z,63.29
2016-03-20T08:19:29.985Z,63.01
2016-03-20T08:20:29.972Z,63.1
2016-03-20T08:21:29.990Z,62.81
2016-03-20T08:22:30.712Z,62.91
2016-03-20T08:23:30.605Z,63.1
2016-03-20T08:24:29.951Z,63.01
2016-03-20T08:25:29.954Z,63.39
2016-03-20T08:27:30.084Z,62.91
2016-03-20T08:28:30.963Z,62.91
2016-03-20T08:29:30.778Z,63.29
2016-03-20T08:30:30.499Z,63.1
2016-03-20T08:31:29.908Z,63.2
2016-03-20T08:32:30.942Z,62.91
2016-03-20T08:33:31.023Z,63.29
2016-03-20T08:34:30.728Z,62.91
2016-03-20T08:35:29.887Z,63.01
2016-03-20T08:36:30.468Z,63.29
2016-03-20T08:37:30.096Z,63.1
2016-03-20T08:38:29.864Z,62.91
2016-03-20T08:39:30.023Z,62.91
2016-03-20T08:40:30.370Z,63.01
2016-03-20T08:41:30.497Z,62.81
2016-03-20T08:42:29.859Z,62.91
2016-03-20T08:43:29.830Z,63.29
2016-03-20T08:44:29.833Z,62.91
2016-03-20T08:45:29.852Z,63.1
2016-03-20T08:46:29.808Z,62.91
2016-03-20T08:47:29.826Z,63.2
2016-03-20T08:48:29.829Z,62.91
2016-03-20T08:49:29.816Z,63.01
2016-03-20T08:50:29.787Z,63.01
2016-03-20T08:51:29.805Z,62.72
2016-03-20T08:52:29.793Z,62.72
2016-03-20T08:53:29.779Z,63.2
2016-03-20T08:54:29.766Z,62.65
2016-03-20T08:55:29.769Z,62.72
2016-03-20T08:56:29.757Z,62.72
2016-03-20T08:57:29.759Z,62.62
2016-03-20T08:58:29.762Z,62.72
2016-03-20T08:59:29.749Z,62.37
2016-03-20T09:00:29.751Z,62.37
2016-03-20T09:01:29.723Z,62.37
2016-03-20T09:02:29.787Z,62.37
2016-03-20T09:03:29.729Z,62.18
2016-03-20T09:04:29.715Z,62.65
2016-03-20T09:05:29.702Z,61.99
2016-03-20T09:06:29.720Z,62.08
2016-03-20T09:07:29.692Z,62.18
2016-03-20T09:08:29.695Z,61.9
2016-03-20T09:09:29.697Z,61.71
2016-03-20T09:10:29.684Z,61.61
2016-03-20T09:11:29.687Z,61.32
2016-03-20T09:12:29.675Z,61.32
2016-03-20T09:13:29.677Z,61.23
2016-03-20T09:14:29.664Z,61.42
2016-03-20T09:15:29.667Z,61.13
2016-03-20T09:16:29.669Z,61.32
2016-03-20T09:17:28.938Z,61.04
2016-03-20T09:18:29.644Z,61.26
2016-03-20T09:19:29.630Z,60.69
2016-03-20T09:20:29.633Z,60.88
2016-03-20T09:21:29.636Z,60.41
2016-03-20T09:22:29.623Z,60.78
2016-03-20T09:23:29.610Z,60.5
2016-03-20T09:24:29.613Z,60.6
2016-03-20T09:25:29.615Z,60.78
2016-03-20T09:26:29.618Z,59.93
2016-03-20T09:27:29.605Z,60.21
2016-03-20T09:28:29.607Z,60.02
2016-03-20T09:29:29.596Z,59.83
2016-03-20T09:30:29.582Z,59.83
2016-03-20T09:31:29.600Z,59.55
2016-03-20T09:32:29.573Z,59.55
2016-03-20T09:33:29.575Z,59.45
2016-03-20T09:34:29.592Z,59.64
2016-03-20T09:35:29.548Z,59.55
2016-03-20T09:36:29.567Z,59.45
2016-03-20T09:37:29.586Z,59.55
2016-03-20T09:38:29.557Z,59.55
2016-03-20T09:39:29.544Z,59.64
2016-03-20T09:40:29.547Z,59.55
2016-03-20T09:41:30.659Z,60.02
2016-03-20T09:42:44.630Z,60.02
2016-03-20T09:43:29.522Z,60.02
2016-03-20T09:44:29.792Z,60.02
2016-03-20T09:45:30.091Z,59.93
2016-03-20T09:46:29.516Z,59.93
2016-03-20T09:47:29.519Z,60.21
2016-03-20T09:48:29.505Z,60.12
2016-03-20T09:49:29.508Z,60.88
2016-03-20T09:50:29.871Z,60.5
2016-03-20T09:51:43.936Z,60.6
2016-03-20T09:52:29.485Z,60.5
2016-03-20T09:53:29.488Z,60.88
2016-03-20T09:54:30.022Z,60.21
2016-03-20T09:55:29.493Z,60.12
2016-03-20T09:56:29.465Z,60.02
2016-03-20T09:57:30.655Z,59.83
2016-03-20T09:58:29.470Z,59.45
2016-03-20T09:59:29.473Z,59.55
2016-03-20T10:00:29.443Z,59.55
2016-03-20T10:01:29.446Z,60.02
2016-03-20T10:02:29.481Z,60.02
2016-03-20T10:03:29.437Z,60.31
2016-03-20T10:04:29.439Z,60.21
2016-03-20T10:05:29.442Z,60.88
2016-03-20T10:06:29.414Z,60.88
2016-03-20T10:07:29.400Z,60.02
2016-03-20T10:08:29.403Z,60.21
2016-03-20T10:09:29.405Z,60.12
2016-03-20T10:10:29.393Z,59.93
2016-03-20T10:11:29.395Z,59.64
2016-03-20T10:12:29.398Z,59.36
2016-03-20T10:13:29.386Z,59.36
2016-03-20T10:14:29.388Z,59.45
2016-03-20T10:15:29.391Z,59.45
2016-03-20T10:16:29.377Z,59.55
2016-03-20T10:17:29.364Z,59.45
2016-03-20T10:18:29.367Z,58.62
2016-03-20T10:19:29.354Z,58.79
2016-03-20T10:20:29.358Z,58.79
2016-03-20T10:21:29.344Z,58.88
2016-03-20T10:22:29.347Z,59.01
2016-03-20T10:23:29.350Z,58.81
2016-03-20T10:24:29.337Z,58.72
2016-03-20T10:25:29.340Z,59.07
2016-03-20T10:26:29.343Z,58.79
2016-03-20T10:27:29.329Z,58.44
2016-03-20T10:28:29.316Z,58.62
2016-03-20T10:29:29.319Z,58.34
2016-03-20T10:30:29.307Z,58.34
2016-03-20T10:31:29.309Z,58.62
2016-03-20T10:32:29.296Z,58.62
2016-03-20T10:33:29.299Z,58.06
2016-03-20T10:34:29.301Z,58.15
2016-03-20T10:35:29.304Z,58.06
2016-03-20T10:36:29.290Z,57.87
2016-03-20T10:37:29.279Z,57.87
2016-03-20T10:38:29.281Z,57.67
2016-03-20T10:39:29.283Z,57.87
2016-03-20T10:40:29.270Z,57.87
2016-03-20T10:41:29.258Z,57.48
2016-03-20T10:42:29.260Z,57.2
2016-03-20T10:43:29.247Z,57.29
2016-03-20T10:44:29.266Z,57.1
2016-03-20T10:45:29.237Z,56.53
2016-03-20T10:46:29.255Z,57.29
2016-03-20T10:47:29.242Z,56.46
2016-03-20T10:48:29.245Z,56.15
2016-03-20T10:49:29.232Z,56.65
2016-03-20T10:50:29.235Z,56.46
2016-03-20T10:51:29.222Z,55.99
2016-03-20T10:52:29.224Z,55.8
2016-03-20T10:53:29.212Z,55.8
2016-03-20T10:54:29.214Z,55.61
2016-03-20T10:55:29.216Z,55.42
2016-03-20T10:56:29.204Z,55.42
2016-03-20T10:57:29.191Z,55.04
2016-03-20T10:58:29.193Z,55.32
2016-03-20T10:59:29.181Z,54.85
2016-03-20T11:00:29.449Z,54.94
2016-03-20T11:01:43.374Z,54.94
2016-03-20T11:02:29.345Z,55.04
2016-03-20T11:03:43.363Z,54.47
2016-03-20T11:04:29.726Z,54.37
2016-03-20T11:05:30.415Z,53.8
2016-03-20T11:06:29.778Z,53.42
2016-03-20T11:07:29.155Z,53.52
2016-03-20T11:08:30.017Z,53.61
2016-03-20T11:09:29.146Z,53.64
2016-03-20T11:10:29.601Z,53.83
2016-03-20T11:11:29.900Z,53.06
2016-03-20T11:12:29.356Z,52.97
2016-03-20T11:13:29.140Z,53.06
2016-03-20T11:14:29.939Z,52.3
2016-03-20T11:15:30.692Z,52.49
2016-03-20T11:16:29.836Z,52.59
2016-03-20T11:17:29.136Z,52.59
2016-03-20T11:18:29.122Z,52.49
2016-03-20T11:19:29.125Z,52.78
2016-03-20T11:20:29.284Z,52.59
2016-03-20T11:21:29.115Z,52.59
2016-03-20T11:22:29.118Z,52.68
2016-03-20T11:23:29.121Z,52.49
2016-03-20T11:24:29.123Z,52.97
2016-03-20T11:25:29.111Z,52.49
2016-03-20T11:26:29.113Z,52.4
2016-03-20T11:27:29.100Z,52.59
2016-03-20T11:28:29.118Z,52.68
2016-03-20T11:29:29.105Z,53.25
2016-03-20T11:30:29.093Z,52.87
2016-03-20T11:31:29.079Z,52.78
2016-03-20T11:32:29.082Z,52.97
2016-03-20T11:33:29.085Z,52.49
2016-03-20T11:34:29.088Z,52.59
2016-03-20T11:35:29.090Z,52.3
2016-03-20T11:36:29.076Z,52.4
2016-03-20T11:37:29.080Z,52.49
2016-03-20T11:38:29.067Z,52.68
2016-03-20T11:39:29.053Z,51.92
2016-03-20T11:40:29.056Z,51.64
2016-03-20T11:41:31.575Z,51.64
2016-03-20T11:42:29.062Z,52.11
2016-03-20T11:43:29.050Z,52.11
2016-03-20T11:44:29.053Z,51.66
2016-03-20T11:45:29.039Z,51.85
2016-03-20T11:46:29.057Z,51.82
2016-03-20T11:47:29.044Z,51.82
2016-03-20T11:48:29.063Z,51.45
2016-03-20T11:49:29.050Z,51.64
2016-03-20T11:50:29.036Z,51.82
2016-03-20T11:51:29.039Z,51.82
2016-03-20T11:52:29.027Z,51.64
2016-03-20T11:53:29.029Z,51.92
2016-03-20T11:54:29.016Z,52.49
2016-03-20T11:55:29.018Z,52.87
2016-03-20T11:56:29.005Z,53.44
2016-03-20T11:57:29.024Z,54.18
2016-03-20T11:58:29.011Z,54.94
2016-03-20T11:59:29.014Z,55.7
2016-03-20T12:00:29.017Z,55.9
2016-03-20T12:01:29.004Z,56.27
2016-03-20T12:02:29.007Z,56.94
2016-03-20T12:03:28.994Z,57.04
2016-03-20T12:04:28.996Z,57.51
2016-03-20T12:05:28.967Z,58.47
2016-03-20T12:06:28.970Z,58.94
2016-03-20T12:07:28.973Z,59.23
2016-03-20T12:08:28.975Z,58.84
2016-03-20T12:09:28.963Z,59.51
2016-03-20T12:10:28.965Z,59.32
2016-03-20T12:11:28.968Z,59.61
2016-03-20T12:12:28.971Z,59.51
2016-03-20T12:13:28.959Z,59.03
2016-03-20T12:14:28.976Z,59.13
2016-03-20T12:15:28.963Z,59.32
2016-03-20T12:16:28.934Z,59.51
2016-03-20T12:17:28.953Z,59.99
2016-03-20T12:18:28.939Z,60.66
2016-03-20T12:19:30.239Z,61.22
2016-03-20T12:20:29.945Z,61.04
2016-03-20T12:21:28.917Z,61.8
2016-03-20T12:22:28.919Z,62.46
2016-03-20T12:23:30.266Z,62.46
2016-03-20T12:24:30.316Z,62.85
2016-03-20T12:25:44.552Z,62.85
2016-03-20T12:26:28.916Z,62.94
2016-03-20T12:27:29.761Z,63.13
2016-03-20T12:28:28.904Z,62.94
2016-03-20T12:29:29.142Z,63.6
2016-03-20T12:30:29.551Z,63.42
2016-03-20T12:31:29.037Z,63.8
2016-03-20T12:32:28.900Z,63.6
2016-03-20T12:33:29.668Z,63.6
2016-03-20T12:34:30.530Z,63.32
2016-03-20T12:35:29.705Z,63.6
2016-03-20T12:36:29.129Z,64.08
2016-03-20T12:37:28.866Z,64.28
2016-03-20T12:38:28.885Z,64.56
2016-03-20T12:39:29.137Z,64.08
2016-03-20T12:40:28.859Z,64.56
2016-03-20T12:41:28.862Z,65.03
2016-03-20T12:42:28.849Z,64.84
2016-03-20T12:43:28.867Z,64.94
2016-03-20T12:44:28.838Z,65.03
2016-03-20T12:45:28.841Z,64.84
2016-03-20T12:46:28.828Z,64.75
2016-03-20T12:47:28.831Z,64.84
2016-03-20T12:48:28.818Z,64.94
2016-03-20T12:49:28.836Z,64.65
2016-03-20T12:50:28.823Z,64.75
2016-03-20T12:51:28.826Z,64.56
2016-03-20T12:52:28.844Z,64.75
2016-03-20T12:53:28.816Z,64.94
2016-03-20T12:54:28.819Z,64.94
2016-03-20T12:55:28.821Z,64.75
2016-03-20T12:56:28.808Z,64.84
2016-03-20T12:57:28.810Z,64.56
2016-03-20T12:58:28.797Z,64.28
2016-03-20T12:59:28.800Z,63.6
2016-03-20T13:00:28.787Z,63.99